Sherburn, MN (56171)

7:07 PM CST on February 07, 2016 (GMT -0600)
FudgeHome | | Change Station
CLOSE
Current Station
Personal Weather Station
Location: Fairmont, MN
Elevation: 1178 ft
Nearby Weather Stations
Active Advisory: Blizzard Warning Active Notice: Public Information Statement

Elev 1178 ft 43.67 °N, 94.47 °W | Updated 14 minutes ago

Snow
Snow
29.8 °F
Feels Like 18 °F
N
16.6
Wind Variable Wind from NE

Today
High -- | Low -- °F
--% Chance of Precip.
Yesterday
High -- | Low -- °F
Precip. -- in
Pressure 29.82 in
Visibility 2.0 miles
Clouds Overcast 1600 ft
Windchill 18 °F
Dew Point 26 °F
Humidity 87%
Rainfall 0.04 in
Snow Depth Not available.
7:28 AM 5:37 PM
Waning Crescent, 0% visible
METAR KMJQ 080053Z AUTO 32025G33KT 2SM -SN OVC016 M01/M04 A2982 RMK AO2
Pressure 29.82 in
Visibility 2.0 miles
Clouds Overcast 1600 ft
Windchill 18 °F
Dew Point 26 °F
Humidity 87%
Rainfall 0.04 in
Snow Depth Not available.
7:28 AM 5:37 PM
Waning Crescent, 0% visible
METAR KMJQ 080053Z AUTO 32025G33KT 2SM -SN OVC016 M01/M04 A2982 RMK AO2

10-Day Weather Forecast

Almanac

Astronomy

Feb. 07, 2016 Rise Set
Actual Time
Civil Twilight
Nautical Twilight
Astronomical Twilight
Moon
Length of Visible Light
Length of Day
Tomorrow will be .
, % of the Moon is Illuminated

Today's Extremes

State Highs State Lows

Community

WunderPhotos

Upload Photos

1,891,340 photos uploaded!

WunderBlog® & News

Nearby

Air Quality

  Air Quality AQ Index Pollutant
Not available.

Snow Depth

Station Depth Elevation

Earthquake Activity

City Distance Mag. Time & Date
Minimum magnitude displayed is 2.5.

Coastal Water Temperatures

Place Temperature

Stations

Nearby Weather Stations

Station Location Temp. Windchill Dew Point Humidity Wind Precip. Elev Updated Type
                   

Watches & Warnings

Blizzard Warning
Issued: 12:59 PM CST Feb. 7, 2016 – National Weather Service

... Blizzard Warning now in effect from 7 PM this evening to noon
CST Monday...

* expect blizzard conditions to develop around 7 PM and then
diminish around noon Monday.

* Winds gusting as high as 45 mph will cause whiteout conditions
in blowing snow. Significant drifting of the snow is likely.

* Total snow accumulations of up to 1 inch are expected.

* Travel will be very difficult to impossible... including during
the morning commute on Monday.

Precautionary/preparedness actions...

A Blizzard Warning means severe winter weather conditions are
expected or occurring. Falling and blowing snow with strong winds
and poor visibilities are likely. This will lead to whiteout
conditions... making travel extremely dangerous. Do not travel. If
you must travel... have a winter survival kit with you. If you get
stranded... stay with your vehicle. The latest Road conditions for
the state you are calling from can be obtained by calling 5 1 1.